sensor_id;sensor_type;location;lat;lon;timestamp;temperature;humidity
40534;DHT22;26233;51.894;10.192;2023-05-21T00:00:16;16.40;44.50
40534;DHT22;26233;51.894;10.192;2023-05-21T00:02:45;16.40;44.50
40534;DHT22;26233;51.894;10.192;2023-05-21T00:05:12;16.40;44.70
40534;DHT22;26233;51.894;10.192;2023-05-21T00:07:41;16.40;44.60
40534;DHT22;26233;51.894;10.192;2023-05-21T00:10:10;16.40;44.70
40534;DHT22;26233;51.894;10.192;2023-05-21T00:12:37;16.40;44.80
40534;DHT22;26233;51.894;10.192;2023-05-21T00:15:05;16.40;44.80
40534;DHT22;26233;51.894;10.192;2023-05-21T00:17:33;16.40;44.90
40534;DHT22;26233;51.894;10.192;2023-05-21T00:20:01;16.30;44.70
40534;DHT22;26233;51.894;10.192;2023-05-21T00:22:30;16.30;44.80
40534;DHT22;26233;51.894;10.192;2023-05-21T00:25:00;16.30;45.40
40534;DHT22;26233;51.894;10.192;2023-05-21T00:27:29;16.30;44.90
40534;DHT22;26233;51.894;10.192;2023-05-21T00:29:56;16.30;44.80
40534;DHT22;26233;51.894;10.192;2023-05-21T00:32:23;16.30;44.90
40534;DHT22;26233;51.894;10.192;2023-05-21T00:34:50;16.20;44.90
40534;DHT22;26233;51.894;10.192;2023-05-21T00:37:17;16.20;44.90
40534;DHT22;26233;51.894;10.192;2023-05-21T00:39:45;16.20;45.00
40534;DHT22;26233;51.894;10.192;2023-05-21T00:42:12;16.20;45.00
40534;DHT22;26233;51.894;10.192;2023-05-21T00:44:44;16.10;45.00
40534;DHT22;26233;51.894;10.192;2023-05-21T00:47:12;16.10;45.10
40534;DHT22;26233;51.894;10.192;2023-05-21T00:49:42;16.20;45.20
40534;DHT22;26233;51.894;10.192;2023-05-21T00:52:10;16.10;45.10
40534;DHT22;26233;51.894;10.192;2023-05-21T00:54:37;16.10;45.20
40534;DHT22;26233;51.894;10.192;2023-05-21T00:57:05;16.10;45.10
40534;DHT22;26233;51.894;10.192;2023-05-21T00:59:32;16.00;45.00
40534;DHT22;26233;51.894;10.192;2023-05-21T01:02:00;16.00;45.20
40534;DHT22;26233;51.894;10.192;2023-05-21T01:04:30;15.90;45.10
40534;DHT22;26233;51.894;10.192;2023-05-21T01:06:57;15.90;45.20
40534;DHT22;26233;51.894;10.192;2023-05-21T01:09:25;15.90;45.30
40534;DHT22;26233;51.894;10.192;2023-05-21T01:11:53;15.80;45.30
40534;DHT22;26233;51.894;10.192;2023-05-21T01:14:22;15.90;45.40
40534;DHT22;26233;51.894;10.192;2023-05-21T01:16:50;15.90;45.50
40534;DHT22;26233;51.894;10.192;2023-05-21T01:19:21;15.80;45.30
40534;DHT22;26233;51.894;10.192;2023-05-21T01:21:51;15.80;45.50
40534;DHT22;26233;51.894;10.192;2023-05-21T01:24:22;15.80;45.50
40534;DHT22;26233;51.894;10.192;2023-05-21T01:26:50;15.80;45.60
40534;DHT22;26233;51.894;10.192;2023-05-21T01:29:18;15.80;45.60
40534;DHT22;26233;51.894;10.192;2023-05-21T01:31:52;15.80;45.60
40534;DHT22;26233;51.894;10.192;2023-05-21T01:34:27;15.70;45.70
40534;DHT22;26233;51.894;10.192;2023-05-21T01:37:02;15.70;45.60
40534;DHT22;26233;51.894;10.192;2023-05-21T01:39:38;15.70;45.70
40534;DHT22;26233;51.894;10.192;2023-05-21T01:42:10;15.70;45.70
40534;DHT22;26233;51.894;10.192;2023-05-21T01:44:39;15.60;45.60
40534;DHT22;26233;51.894;10.192;2023-05-21T01:47:06;15.60;45.60
40534;DHT22;26233;51.894;10.192;2023-05-21T01:49:34;15.60;45.70
40534;DHT22;26233;51.894;10.192;2023-05-21T01:52:02;15.60;45.70
40534;DHT22;26233;51.894;10.192;2023-05-21T01:54:29;15.50;45.70
40534;DHT22;26233;51.894;10.192;2023-05-21T01:56:57;15.50;45.60
40534;DHT22;26233;51.894;10.192;2023-05-21T01:59:26;15.50;45.60
40534;DHT22;26233;51.894;10.192;2023-05-21T02:01:54;15.50;45.70
40534;DHT22;26233;51.894;10.192;2023-05-21T02:04:21;15.40;45.70
40534;DHT22;26233;51.894;10.192;2023-05-21T02:06:48;15.40;45.70
40534;DHT22;26233;51.894;10.192;2023-05-21T02:09:16;15.40;45.70
40534;DHT22;26233;51.894;10.192;2023-05-21T02:11:43;15.30;45.70
40534;DHT22;26233;51.894;10.192;2023-05-21T02:14:11;15.30;45.90
40534;DHT22;26233;51.894;10.192;2023-05-21T02:16:39;15.20;45.80
40534;DHT22;26233;51.894;10.192;2023-05-21T02:19:06;15.20;45.90
40534;DHT22;26233;51.894;10.192;2023-05-21T02:21:35;15.20;46.00
40534;DHT22;26233;51.894;10.192;2023-05-21T02:24:02;15.20;46.00
40534;DHT22;26233;51.894;10.192;2023-05-21T02:26:29;15.20;46.00
40534;DHT22;26233;51.894;10.192;2023-05-21T02:28:56;15.10;46.00
40534;DHT22;26233;51.894;10.192;2023-05-21T02:31:24;15.10;45.90
40534;DHT22;26233;51.894;10.192;2023-05-21T02:33:51;15.10;46.00
40534;DHT22;26233;51.894;10.192;2023-05-21T02:36:18;15.00;46.00
40534;DHT22;26233;51.894;10.192;2023-05-21T02:38:45;15.00;46.10
40534;DHT22;26233;51.894;10.192;2023-05-21T02:41:13;15.00;46.00
40534;DHT22;26233;51.894;10.192;2023-05-21T02:43:40;15.00;46.00
40534;DHT22;26233;51.894;10.192;2023-05-21T02:46:07;14.90;46.00
40534;DHT22;26233;51.894;10.192;2023-05-21T02:48:35;14.90;46.10
40534;DHT22;26233;51.894;10.192;2023-05-21T02:51:03;14.90;46.20
40534;DHT22;26233;51.894;10.192;2023-05-21T02:53:30;14.80;46.20
40534;DHT22;26233;51.894;10.192;2023-05-21T02:55:57;14.80;46.40
40534;DHT22;26233;51.894;10.192;2023-05-21T02:58:24;14.80;46.40
40534;DHT22;26233;51.894;10.192;2023-05-21T03:00:51;14.80;46.40
40534;DHT22;26233;51.894;10.192;2023-05-21T03:03:18;14.80;46.40
40534;DHT22;26233;51.894;10.192;2023-05-21T03:05:47;14.80;46.40
40534;DHT22;26233;51.894;10.192;2023-05-21T03:08:14;14.80;46.40
40534;DHT22;26233;51.894;10.192;2023-05-21T03:10:41;14.70;46.30
40534;DHT22;26233;51.894;10.192;2023-05-21T03:13:11;14.70;46.40
40534;DHT22;26233;51.894;10.192;2023-05-21T03:15:38;14.70;46.40
40534;DHT22;26233;51.894;10.192;2023-05-21T03:18:05;14.70;46.50
40534;DHT22;26233;51.894;10.192;2023-05-21T03:20:32;14.70;46.50
40534;DHT22;26233;51.894;10.192;2023-05-21T03:23:01;14.60;46.50
40534;DHT22;26233;51.894;10.192;2023-05-21T03:25:29;14.60;46.50
40534;DHT22;26233;51.894;10.192;2023-05-21T03:27:56;14.60;46.60
40534;DHT22;26233;51.894;10.192;2023-05-21T03:30:23;14.50;46.50
40534;DHT22;26233;51.894;10.192;2023-05-21T03:32:50;14.50;46.60
40534;DHT22;26233;51.894;10.192;2023-05-21T03:35:17;14.50;46.60
40534;DHT22;26233;51.894;10.192;2023-05-21T03:37:44;14.50;46.70
40534;DHT22;26233;51.894;10.192;2023-05-21T03:40:13;14.50;46.80
40534;DHT22;26233;51.894;10.192;2023-05-21T03:42:40;14.50;46.90
40534;DHT22;26233;51.894;10.192;2023-05-21T03:45:08;14.50;47.00
40534;DHT22;26233;51.894;10.192;2023-05-21T03:47:36;14.50;47.00
40534;DHT22;26233;51.894;10.192;2023-05-21T03:50:03;14.50;47.00
40534;DHT22;26233;51.894;10.192;2023-05-21T03:52:31;14.50;47.10
40534;DHT22;26233;51.894;10.192;2023-05-21T03:54:58;14.50;47.20
40534;DHT22;26233;51.894;10.192;2023-05-21T03:57:27;14.60;47.20
40534;DHT22;26233;51.894;10.192;2023-05-21T03:59:54;14.60;47.30
40534;DHT22;26233;51.894;10.192;2023-05-21T04:02:24;14.60;47.30
40534;DHT22;26233;51.894;10.192;2023-05-21T04:04:52;14.60;47.30
40534;DHT22;26233;51.894;10.192;2023-05-21T04:07:20;14.60;47.20
40534;DHT22;26233;51.894;10.192;2023-05-21T04:09:47;14.70;47.30
40534;DHT22;26233;51.894;10.192;2023-05-21T04:12:14;14.60;47.20
40534;DHT22;26233;51.894;10.192;2023-05-21T04:14:43;14.70;47.30
40534;DHT22;26233;51.894;10.192;2023-05-21T04:17:11;14.60;47.30
40534;DHT22;26233;51.894;10.192;2023-05-21T04:19:38;14.60;47.40
40534;DHT22;26233;51.894;10.192;2023-05-21T04:22:05;14.60;47.40
40534;DHT22;26233;51.894;10.192;2023-05-21T04:24:32;14.70;47.60
40534;DHT22;26233;51.894;10.192;2023-05-21T04:26:59;14.70;47.70
40534;DHT22;26233;51.894;10.192;2023-05-21T04:29:26;14.70;47.60
40534;DHT22;26233;51.894;10.192;2023-05-21T04:31:55;14.80;47.80
40534;DHT22;26233;51.894;10.192;2023-05-21T04:34:22;14.80;47.80
40534;DHT22;26233;51.894;10.192;2023-05-21T04:36:50;14.80;47.80
40534;DHT22;26233;51.894;10.192;2023-05-21T04:39:18;14.90;47.90
40534;DHT22;26233;51.894;10.192;2023-05-21T04:41:45;14.90;47.90
40534;DHT22;26233;51.894;10.192;2023-05-21T04:44:12;14.90;47.90
40534;DHT22;26233;51.894;10.192;2023-05-21T04:46:40;15.00;48.00
40534;DHT22;26233;51.894;10.192;2023-05-21T04:49:08;15.00;48.10
40534;DHT22;26233;51.894;10.192;2023-05-21T04:51:36;15.10;48.30
40534;DHT22;26233;51.894;10.192;2023-05-21T04:54:04;15.20;48.40
40534;DHT22;26233;51.894;10.192;2023-05-21T04:56:31;15.20;48.40
40534;DHT22;26233;51.894;10.192;2023-05-21T04:58:58;15.30;48.50
40534;DHT22;26233;51.894;10.192;2023-05-21T05:01:25;15.40;48.40
40534;DHT22;26233;51.894;10.192;2023-05-21T05:03:53;15.50;48.40
40534;DHT22;26233;51.894;10.192;2023-05-21T05:06:22;15.50;48.40
40534;DHT22;26233;51.894;10.192;2023-05-21T05:08:50;15.60;48.40
40534;DHT22;26233;51.894;10.192;2023-05-21T05:11:17;15.70;48.40
40534;DHT22;26233;51.894;10.192;2023-05-21T05:13:44;15.70;48.40
40534;DHT22;26233;51.894;10.192;2023-05-21T05:16:11;15.80;48.40
40534;DHT22;26233;51.894;10.192;2023-05-21T05:18:39;15.80;48.30
40534;DHT22;26233;51.894;10.192;2023-05-21T05:21:06;15.90;48.40
40534;DHT22;26233;51.894;10.192;2023-05-21T05:23:34;15.90;48.40
40534;DHT22;26233;51.894;10.192;2023-05-21T05:26:01;15.90;48.40
40534;DHT22;26233;51.894;10.192;2023-05-21T05:28:28;16.00;48.50
40534;DHT22;26233;51.894;10.192;2023-05-21T05:30:55;16.10;48.50
40534;DHT22;26233;51.894;10.192;2023-05-21T05:33:22;16.10;48.50
40534;DHT22;26233;51.894;10.192;2023-05-21T05:35:49;16.10;48.50
40534;DHT22;26233;51.894;10.192;2023-05-21T05:38:16;16.20;48.50
40534;DHT22;26233;51.894;10.192;2023-05-21T05:40:45;16.20;48.50
40534;DHT22;26233;51.894;10.192;2023-05-21T05:43:12;16.30;48.60
40534;DHT22;26233;51.894;10.192;2023-05-21T05:45:39;16.30;48.60
40534;DHT22;26233;51.894;10.192;2023-05-21T05:48:06;16.30;48.60
40534;DHT22;26233;51.894;10.192;2023-05-21T05:50:33;16.40;48.70
40534;DHT22;26233;51.894;10.192;2023-05-21T05:53:00;16.50;48.70
40534;DHT22;26233;51.894;10.192;2023-05-21T05:55:27;16.50;48.70
40534;DHT22;26233;51.894;10.192;2023-05-21T05:57:55;16.60;48.90
40534;DHT22;26233;51.894;10.192;2023-05-21T06:00:22;16.70;48.90
40534;DHT22;26233;51.894;10.192;2023-05-21T06:02:50;16.70;48.90
40534;DHT22;26233;51.894;10.192;2023-05-21T06:05:17;16.80;48.90
40534;DHT22;26233;51.894;10.192;2023-05-21T06:07:44;16.90;48.90
40534;DHT22;26233;51.894;10.192;2023-05-21T06:10:11;16.90;48.90
40534;DHT22;26233;51.894;10.192;2023-05-21T06:12:38;17.00;48.90
40534;DHT22;26233;51.894;10.192;2023-05-21T06:15:07;17.20;49.60
40534;DHT22;26233;51.894;10.192;2023-05-21T06:17:35;17.10;49.00
40534;DHT22;26233;51.894;10.192;2023-05-21T06:20:02;17.20;49.00
40534;DHT22;26233;51.894;10.192;2023-05-21T06:22:30;17.30;49.10
40534;DHT22;26233;51.894;10.192;2023-05-21T06:24:57;17.40;49.10
40534;DHT22;26233;51.894;10.192;2023-05-21T06:27:24;17.50;49.10
40534;DHT22;26233;51.894;10.192;2023-05-21T06:29:51;17.50;49.10
40534;DHT22;26233;51.894;10.192;2023-05-21T06:32:19;17.60;49.60
40534;DHT22;26233;51.894;10.192;2023-05-21T06:34:47;17.70;49.10
40534;DHT22;26233;51.894;10.192;2023-05-21T06:37:18;17.70;49.00
40534;DHT22;26233;51.894;10.192;2023-05-21T06:39:46;17.70;49.00
40534;DHT22;26233;51.894;10.192;2023-05-21T06:42:13;17.80;49.00
40534;DHT22;26233;51.894;10.192;2023-05-21T06:44:40;17.80;49.00
40534;DHT22;26233;51.894;10.192;2023-05-21T06:47:07;17.80;49.00
40534;DHT22;26233;51.894;10.192;2023-05-21T06:49:36;17.90;49.10
40534;DHT22;26233;51.894;10.192;2023-05-21T06:52:03;17.90;49.10
40534;DHT22;26233;51.894;10.192;2023-05-21T06:54:31;18.00;49.10
40534;DHT22;26233;51.894;10.192;2023-05-21T06:56:59;18.10;49.20
40534;DHT22;26233;51.894;10.192;2023-05-21T06:59:26;18.10;49.20
40534;DHT22;26233;51.894;10.192;2023-05-21T07:01:53;18.20;49.40
40534;DHT22;26233;51.894;10.192;2023-05-21T07:04:20;18.30;49.50
40534;DHT22;26233;51.894;10.192;2023-05-21T07:06:48;18.40;49.60
40534;DHT22;26233;51.894;10.192;2023-05-21T07:09:16;18.60;49.70
40534;DHT22;26233;51.894;10.192;2023-05-21T07:11:43;18.70;49.80
40534;DHT22;26233;51.894;10.192;2023-05-21T07:14:10;18.90;49.90
40534;DHT22;26233;51.894;10.192;2023-05-21T07:16:37;19.10;50.10
40534;DHT22;26233;51.894;10.192;2023-05-21T07:19:04;19.30;50.40
40534;DHT22;26233;51.894;10.192;2023-05-21T07:21:34;19.50;50.70
40534;DHT22;26233;51.894;10.192;2023-05-21T07:24:03;19.80;51.00
40534;DHT22;26233;51.894;10.192;2023-05-21T07:26:30;20.10;51.30
40534;DHT22;26233;51.894;10.192;2023-05-21T07:28:57;20.50;51.60
40534;DHT22;26233;51.894;10.192;2023-05-21T07:31:24;20.90;51.50
40534;DHT22;26233;51.894;10.192;2023-05-21T07:33:53;21.20;51.20
40534;DHT22;26233;51.894;10.192;2023-05-21T07:36:20;21.50;50.50
40534;DHT22;26233;51.894;10.192;2023-05-21T07:38:47;21.70;50.10
40534;DHT22;26233;51.894;10.192;2023-05-21T07:41:15;21.90;49.90
40534;DHT22;26233;51.894;10.192;2023-05-21T07:43:42;22.10;49.80
40534;DHT22;26233;51.894;10.192;2023-05-21T07:46:09;22.20;49.70
40534;DHT22;26233;51.894;10.192;2023-05-21T07:48:36;22.40;49.40
40534;DHT22;26233;51.894;10.192;2023-05-21T07:51:04;22.40;48.90
40534;DHT22;26233;51.894;10.192;2023-05-21T07:53:31;22.50;48.70
40534;DHT22;26233;51.894;10.192;2023-05-21T07:55:58;22.50;48.40
40534;DHT22;26233;51.894;10.192;2023-05-21T07:58:26;22.50;48.10
40534;DHT22;26233;51.894;10.192;2023-05-21T08:00:54;22.40;47.90
40534;DHT22;26233;51.894;10.192;2023-05-21T08:03:21;22.40;47.90
40534;DHT22;26233;51.894;10.192;2023-05-21T08:05:48;22.30;47.90
40534;DHT22;26233;51.894;10.192;2023-05-21T08:08:17;22.30;48.20
40534;DHT22;26233;51.894;10.192;2023-05-21T08:10:44;22.30;48.30
40534;DHT22;26233;51.894;10.192;2023-05-21T08:13:12;22.30;48.50
40534;DHT22;26233;51.894;10.192;2023-05-21T08:15:42;22.40;48.60
40534;DHT22;26233;51.894;10.192;2023-05-21T08:18:09;22.50;48.80
40534;DHT22;26233;51.894;10.192;2023-05-21T08:20:36;22.60;49.00
40534;DHT22;26233;51.894;10.192;2023-05-21T08:23:03;22.80;49.20
40534;DHT22;26233;51.894;10.192;2023-05-21T08:25:30;22.90;49.00
40534;DHT22;26233;51.894;10.192;2023-05-21T08:27:57;23.00;48.60
40534;DHT22;26233;51.894;10.192;2023-05-21T08:30:24;23.20;48.60
40534;DHT22;26233;51.894;10.192;2023-05-21T08:32:53;23.30;48.70
40534;DHT22;26233;51.894;10.192;2023-05-21T08:35:20;23.50;49.00
40534;DHT22;26233;51.894;10.192;2023-05-21T08:37:47;23.80;49.60
40534;DHT22;26233;51.894;10.192;2023-05-21T08:40:14;24.10;49.70
40534;DHT22;26233;51.894;10.192;2023-05-21T08:42:43;24.30;49.40
40534;DHT22;26233;51.894;10.192;2023-05-21T08:45:19;24.60;49.20
40534;DHT22;26233;51.894;10.192;2023-05-21T08:47:54;24.80;48.90
40534;DHT22;26233;51.894;10.192;2023-05-21T08:50:25;25.00;49.00
40534;DHT22;26233;51.894;10.192;2023-05-21T08:52:53;25.30;48.70
40534;DHT22;26233;51.894;10.192;2023-05-21T08:55:21;25.50;48.50
40534;DHT22;26233;51.894;10.192;2023-05-21T08:57:48;25.70;48.10
40534;DHT22;26233;51.894;10.192;2023-05-21T09:00:16;25.80;47.60
40534;DHT22;26233;51.894;10.192;2023-05-21T09:02:45;25.90;47.30
40534;DHT22;26233;51.894;10.192;2023-05-21T09:05:14;26.00;47.30
40534;DHT22;26233;51.894;10.192;2023-05-21T09:07:44;26.10;47.10
40534;DHT22;26233;51.894;10.192;2023-05-21T09:10:13;26.20;47.00
40534;DHT22;26233;51.894;10.192;2023-05-21T09:12:43;26.30;47.00
40534;DHT22;26233;51.894;10.192;2023-05-21T09:15:12;26.40;47.10
40534;DHT22;26233;51.894;10.192;2023-05-21T09:17:39;26.60;47.90
40534;DHT22;26233;51.894;10.192;2023-05-21T09:20:11;26.70;47.30
40534;DHT22;26233;51.894;10.192;2023-05-21T09:22:41;26.80;47.00
40534;DHT22;26233;51.894;10.192;2023-05-21T09:25:10;27.00;47.00
40534;DHT22;26233;51.894;10.192;2023-05-21T09:27:38;27.20;47.00
40534;DHT22;26233;51.894;10.192;2023-05-21T09:30:09;27.40;46.90
40534;DHT22;26233;51.894;10.192;2023-05-21T09:32:37;27.60;46.30
40534;DHT22;26233;51.894;10.192;2023-05-21T09:35:06;27.80;46.50
40534;DHT22;26233;51.894;10.192;2023-05-21T09:37:38;28.00;46.50
40534;DHT22;26233;51.894;10.192;2023-05-21T09:40:12;28.20;46.30
40534;DHT22;26233;51.894;10.192;2023-05-21T09:42:41;28.50;46.50
40534;DHT22;26233;51.894;10.192;2023-05-21T09:45:09;28.80;46.50
40534;DHT22;26233;51.894;10.192;2023-05-21T09:47:40;29.10;46.30
40534;DHT22;26233;51.894;10.192;2023-05-21T09:50:09;29.30;45.20
40534;DHT22;26233;51.894;10.192;2023-05-21T09:52:37;29.60;45.10
40534;DHT22;26233;51.894;10.192;2023-05-21T09:55:09;29.80;44.50
40534;DHT22;26233;51.894;10.192;2023-05-21T09:57:41;29.90;43.70
40534;DHT22;26233;51.894;10.192;2023-05-21T10:00:16;30.10;43.80
40534;DHT22;26233;51.894;10.192;2023-05-21T10:02:46;30.30;43.40
40534;DHT22;26233;51.894;10.192;2023-05-21T10:05:15;30.40;43.20
40534;DHT22;26233;51.894;10.192;2023-05-21T10:07:46;30.60;43.20
40534;DHT22;26233;51.894;10.192;2023-05-21T10:10:19;30.70;42.80
40534;DHT22;26233;51.894;10.192;2023-05-21T10:12:58;30.80;42.40
40534;DHT22;26233;51.894;10.192;2023-05-21T10:15:27;30.80;41.90
40534;DHT22;26233;51.894;10.192;2023-05-21T10:17:58;30.70;41.40
40534;DHT22;26233;51.894;10.192;2023-05-21T10:20:27;30.50;40.90
40534;DHT22;26233;51.894;10.192;2023-05-21T10:22:55;30.40;40.30
40534;DHT22;26233;51.894;10.192;2023-05-21T10:25:24;30.20;40.30
40534;DHT22;26233;51.894;10.192;2023-05-21T10:27:53;30.00;40.40
40534;DHT22;26233;51.894;10.192;2023-05-21T10:30:21;29.80;40.40
40534;DHT22;26233;51.894;10.192;2023-05-21T10:32:50;29.70;40.40
40534;DHT22;26233;51.894;10.192;2023-05-21T10:35:17;29.60;40.20
40534;DHT22;26233;51.894;10.192;2023-05-21T10:37:45;29.50;40.20
40534;DHT22;26233;51.894;10.192;2023-05-21T10:40:12;29.50;40.40
40534;DHT22;26233;51.894;10.192;2023-05-21T10:43:04;29.60;37.40
40534;DHT22;26233;51.894;10.192;2023-05-21T10:45:50;29.30;38.70
40534;DHT22;26233;51.894;10.192;2023-05-21T10:48:50;29.20;39.60
40534;DHT22;26233;51.894;10.192;2023-05-21T10:51:25;29.30;39.60
40534;DHT22;26233;51.894;10.192;2023-05-21T10:54:15;29.30;39.60
40534;DHT22;26233;51.894;10.192;2023-05-21T10:57:00;29.20;38.70
40534;DHT22;26233;51.894;10.192;2023-05-21T10:59:39;29.10;39.20
40534;DHT22;26233;51.894;10.192;2023-05-21T11:02:09;29.00;39.10
40534;DHT22;26233;51.894;10.192;2023-05-21T11:04:39;28.90;39.20
40534;DHT22;26233;51.894;10.192;2023-05-21T11:07:08;28.90;39.20
40534;DHT22;26233;51.894;10.192;2023-05-21T11:09:37;28.70;39.10
40534;DHT22;26233;51.894;10.192;2023-05-21T11:12:05;28.60;39.10
40534;DHT22;26233;51.894;10.192;2023-05-21T11:14:36;28.30;38.90
40534;DHT22;26233;51.894;10.192;2023-05-21T11:17:09;28.10;38.80
40534;DHT22;26233;51.894;10.192;2023-05-21T11:19:38;28.00;39.20
40534;DHT22;26233;51.894;10.192;2023-05-21T11:22:20;27.90;39.40
40534;DHT22;26233;51.894;10.192;2023-05-21T11:24:49;27.80;39.50
40534;DHT22;26233;51.894;10.192;2023-05-21T11:27:33;27.70;39.50
40534;DHT22;26233;51.894;10.192;2023-05-21T11:30:04;27.60;39.80
40534;DHT22;26233;51.894;10.192;2023-05-21T11:32:36;27.60;40.50
40534;DHT22;26233;51.894;10.192;2023-05-21T11:35:05;27.60;40.00
40534;DHT22;26233;51.894;10.192;2023-05-21T11:37:34;27.40;39.70
40534;DHT22;26233;51.894;10.192;2023-05-21T11:40:24;27.30;39.60
40534;DHT22;26233;51.894;10.192;2023-05-21T11:42:53;27.20;39.80
40534;DHT22;26233;51.894;10.192;2023-05-21T11:45:26;27.10;39.70
40534;DHT22;26233;51.894;10.192;2023-05-21T11:47:55;27.00;39.80
40534;DHT22;26233;51.894;10.192;2023-05-21T11:50:23;26.90;40.00
40534;DHT22;26233;51.894;10.192;2023-05-21T11:52:52;26.90;40.10
40534;DHT22;26233;51.894;10.192;2023-05-21T11:55:23;26.80;40.10
40534;DHT22;26233;51.894;10.192;2023-05-21T11:57:52;26.80;40.20
40534;DHT22;26233;51.894;10.192;2023-05-21T12:00:21;26.80;40.50
40534;DHT22;26233;51.894;10.192;2023-05-21T12:02:50;27.00;41.10
40534;DHT22;26233;51.894;10.192;2023-05-21T12:05:20;27.10;41.80
40534;DHT22;26233;51.894;10.192;2023-05-21T12:07:48;27.20;40.80
40534;DHT22;26233;51.894;10.192;2023-05-21T12:10:15;27.10;40.60
40534;DHT22;26233;51.894;10.192;2023-05-21T12:12:46;27.40;40.80
40534;DHT22;26233;51.894;10.192;2023-05-21T12:15:13;27.40;40.70
40534;DHT22;26233;51.894;10.192;2023-05-21T12:17:41;27.50;40.50
40534;DHT22;26233;51.894;10.192;2023-05-21T12:20:09;27.50;40.50
40534;DHT22;26233;51.894;10.192;2023-05-21T12:22:41;27.60;40.50
40534;DHT22;26233;51.894;10.192;2023-05-21T12:25:08;27.60;40.20
40534;DHT22;26233;51.894;10.192;2023-05-21T12:27:36;27.60;40.00
40534;DHT22;26233;51.894;10.192;2023-05-21T12:30:05;27.60;39.90
40534;DHT22;26233;51.894;10.192;2023-05-21T12:32:34;27.50;39.90
40534;DHT22;26233;51.894;10.192;2023-05-21T12:35:04;27.50;39.90
40534;DHT22;26233;51.894;10.192;2023-05-21T12:37:32;27.40;39.90
40534;DHT22;26233;51.894;10.192;2023-05-21T12:40:01;27.30;39.80
40534;DHT22;26233;51.894;10.192;2023-05-21T12:42:32;27.30;39.80
40534;DHT22;26233;51.894;10.192;2023-05-21T12:45:00;27.20;39.90
40534;DHT22;26233;51.894;10.192;2023-05-21T12:47:32;27.20;40.10
40534;DHT22;26233;51.894;10.192;2023-05-21T12:50:00;27.10;40.00
40534;DHT22;26233;51.894;10.192;2023-05-21T12:52:29;27.10;40.10
40534;DHT22;26233;51.894;10.192;2023-05-21T12:54:57;27.20;40.50
40534;DHT22;26233;51.894;10.192;2023-05-21T12:57:25;27.30;40.80
40534;DHT22;26233;51.894;10.192;2023-05-21T12:59:54;27.40;40.60
40534;DHT22;26233;51.894;10.192;2023-05-21T13:02:24;27.60;40.50
40534;DHT22;26233;51.894;10.192;2023-05-21T13:04:56;27.60;40.00
40534;DHT22;26233;51.894;10.192;2023-05-21T13:07:24;27.70;39.60
40534;DHT22;26233;51.894;10.192;2023-05-21T13:09:53;27.70;40.10
40534;DHT22;26233;51.894;10.192;2023-05-21T13:12:21;27.70;39.60
40534;DHT22;26233;51.894;10.192;2023-05-21T13:14:49;27.80;39.60
40534;DHT22;26233;51.894;10.192;2023-05-21T13:17:17;27.90;39.40
40534;DHT22;26233;51.894;10.192;2023-05-21T13:20:03;28.00;39.20
40534;DHT22;26233;51.894;10.192;2023-05-21T13:22:33;28.00;39.10
40534;DHT22;26233;51.894;10.192;2023-05-21T13:25:02;28.10;39.20
40534;DHT22;26233;51.894;10.192;2023-05-21T13:27:29;28.20;39.30
40534;DHT22;26233;51.894;10.192;2023-05-21T13:29:57;28.40;39.30
40534;DHT22;26233;51.894;10.192;2023-05-21T13:32:24;28.60;39.00
40534;DHT22;26233;51.894;10.192;2023-05-21T13:34:51;28.70;38.70
40534;DHT22;26233;51.894;10.192;2023-05-21T13:37:18;28.80;38.50
40534;DHT22;26233;51.894;10.192;2023-05-21T13:39:45;28.90;39.20
40534;DHT22;26233;51.894;10.192;2023-05-21T13:42:14;29.10;38.60
40534;DHT22;26233;51.894;10.192;2023-05-21T13:44:41;29.20;38.40
40534;DHT22;26233;51.894;10.192;2023-05-21T13:47:08;29.40;38.40
40534;DHT22;26233;51.894;10.192;2023-05-21T13:49:37;29.60;38.00
40534;DHT22;26233;51.894;10.192;2023-05-21T13:52:06;29.60;37.80
40534;DHT22;26233;51.894;10.192;2023-05-21T13:54:34;29.70;37.40
40534;DHT22;26233;51.894;10.192;2023-05-21T13:57:01;29.70;37.20
40534;DHT22;26233;51.894;10.192;2023-05-21T13:59:30;29.80;37.10
40534;DHT22;26233;51.894;10.192;2023-05-21T14:01:57;29.80;36.90
40534;DHT22;26233;51.894;10.192;2023-05-21T14:04:24;29.80;37.00
40534;DHT22;26233;51.894;10.192;2023-05-21T14:06:52;29.80;37.00
40534;DHT22;26233;51.894;10.192;2023-05-21T14:09:19;29.80;36.70
40534;DHT22;26233;51.894;10.192;2023-05-21T14:11:47;29.90;36.50
40534;DHT22;26233;51.894;10.192;2023-05-21T14:14:15;29.80;35.80
40534;DHT22;26233;51.894;10.192;2023-05-21T14:16:45;29.80;35.90
40534;DHT22;26233;51.894;10.192;2023-05-21T14:19:13;29.90;35.60
40534;DHT22;26233;51.894;10.192;2023-05-21T14:21:40;29.80;35.20
40534;DHT22;26233;51.894;10.192;2023-05-21T14:24:07;29.70;35.50
40534;DHT22;26233;51.894;10.192;2023-05-21T14:26:36;29.60;35.40
40534;DHT22;26233;51.894;10.192;2023-05-21T14:29:06;29.70;35.30
40534;DHT22;26233;51.894;10.192;2023-05-21T14:31:33;29.60;35.10
40534;DHT22;26233;51.894;10.192;2023-05-21T14:34:01;29.60;35.20
40534;DHT22;26233;51.894;10.192;2023-05-21T14:36:29;29.50;35.20
40534;DHT22;26233;51.894;10.192;2023-05-21T14:38:57;29.40;35.30
40534;DHT22;26233;51.894;10.192;2023-05-21T14:41:24;29.40;35.70
40534;DHT22;26233;51.894;10.192;2023-05-21T14:43:52;29.30;35.00
40534;DHT22;26233;51.894;10.192;2023-05-21T14:46:19;29.30;35.20
40534;DHT22;26233;51.894;10.192;2023-05-21T14:48:46;29.30;35.30
40534;DHT22;26233;51.894;10.192;2023-05-21T14:51:14;29.30;35.40
40534;DHT22;26233;51.894;10.192;2023-05-21T14:53:42;29.30;35.80
40534;DHT22;26233;51.894;10.192;2023-05-21T14:56:09;29.30;35.30
40534;DHT22;26233;51.894;10.192;2023-05-21T14:58:36;29.30;35.20
40534;DHT22;26233;51.894;10.192;2023-05-21T15:01:03;29.30;35.40
40534;DHT22;26233;51.894;10.192;2023-05-21T15:03:30;29.30;35.40
40534;DHT22;26233;51.894;10.192;2023-05-21T15:05:57;29.30;35.20
40534;DHT22;26233;51.894;10.192;2023-05-21T15:08:25;29.30;35.10
40534;DHT22;26233;51.894;10.192;2023-05-21T15:10:52;29.30;35.00
40534;DHT22;26233;51.894;10.192;2023-05-21T15:13:19;29.30;35.10
40534;DHT22;26233;51.894;10.192;2023-05-21T15:15:47;29.40;35.10
40534;DHT22;26233;51.894;10.192;2023-05-21T15:18:14;29.30;35.00
40534;DHT22;26233;51.894;10.192;2023-05-21T15:20:41;29.30;35.20
40534;DHT22;26233;51.894;10.192;2023-05-21T15:23:09;29.20;34.80